Time;durP1;ratioP1;P1;durP2;ratioP2;P2;SDS_P1;SDS_P2;PMS_P1;PMS_P2;Temp;Humidity;BMP_temperature;BMP_pressure;BME280_temperature;BME280_humidity;BME280_pressure;Samples;Min_cycle;Max_cycle;Signal;HPM_P1;HPM_P2
2023/06/13 00:01:35;;;;;;;6.30;5.70;;;15.90;74.80;;;;;;5027373;28;20239;-79
2023/06/13 00:04:23;;;;;;;6.82;5.57;;;16.20;72.60;;;;;;5019348;28;20129;-79
2023/06/13 00:06:59;;;;;;;7.63;5.40;;;16.40;71.20;;;;;;5016286;28;20121;-80
2023/06/13 00:09:31;;;;;;;5.85;5.32;;;16.50;69.60;;;;;;5042935;28;20372;-80
2023/06/13 00:12:11;;;;;;;6.00;5.40;;;16.60;69.20;;;;;;5018495;28;20180;-80
2023/06/13 00:15:18;;;;;;;5.93;5.07;;;16.70;68.10;;;;;;5019750;28;20507;-80
2023/06/13 00:17:50;;;;;;;6.18;5.20;;;16.80;67.10;;;;;;5008707;28;20045;-80
2023/06/13 00:20:26;;;;;;;6.55;5.50;;;16.90;66.90;;;;;;5033717;28;20095;-80
2023/06/13 00:23:04;;;;;;;7.28;5.60;;;16.90;66.40;;;;;;5010924;28;20174;-80
2023/06/13 00:25:32;;;;;;;7.22;5.90;;;16.90;66.00;;;;;;5045420;28;20520;-80
2023/06/13 00:28:15;;;;;;;8.00;5.82;;;17.00;65.70;;;;;;5061377;28;20037;-80
2023/06/13 00:30:48;;;;;;;6.55;5.80;;;17.00;65.10;;;;;;5004756;28;20555;-80
2023/06/13 00:33:20;;;;;;;;;;;17.10;65.20;;;;;;5002424;28;20099;-80
2023/06/13 00:35:46;;;;;;;6.22;5.60;;;17.00;64.90;;;;;;5047399;28;19917;-80
2023/06/13 00:38:29;;;;;;;8.23;5.25;;;17.10;64.70;;;;;;5023877;28;20388;-80
2023/06/13 00:41:03;;;;;;;6.82;5.53;;;17.10;64.70;;;;;;5002366;28;20519;-80
2023/06/13 00:43:37;;;;;;;7.38;5.80;;;17.10;64.80;;;;;;5001163;28;20041;-80
2023/06/13 00:46:45;;;;;;;7.32;5.80;;;17.00;64.90;;;;;;5032170;28;20491;-80
2023/06/13 00:49:25;;;;;;;6.43;5.82;;;16.90;64.70;;;;;;5023549;28;20042;-80
2023/06/13 00:52:04;;;;;;;7.18;5.60;;;16.90;64.90;;;;;;5001106;28;20438;-80
2023/06/13 00:54:44;;;;;;;6.93;6.05;;;16.90;64.80;;;;;;5007914;28;20064;-80
2023/06/13 00:57:15;;;;;;;7.53;5.88;;;16.90;64.90;;;;;;5012925;28;20048;-80
2023/06/13 00:59:54;;;;;;;6.38;5.60;;;16.80;65.00;;;;;;5028581;28;20041;-80
2023/06/13 01:02:34;;;;;;;8.40;5.57;;;16.80;65.00;;;;;;5035900;28;20110;-81
2023/06/13 01:05:03;;;;;;;8.17;6.03;;;16.90;64.90;;;;;;5040771;28;20050;-80
2023/06/13 01:07:47;;;;;;;7.45;6.50;;;16.80;65.10;;;;;;5007048;28;20455;-80
2023/06/13 01:10:16;;;;;;;6.93;6.22;;;16.80;65.00;;;;;;5010440;28;20069;-80
2023/06/13 01:13:34;;;;;;;9.02;6.28;;;16.70;65.10;;;;;;4998964;28;20064;-80
2023/06/13 01:16:34;;;;;;;10.88;6.18;;;16.80;65.20;;;;;;5015337;28;20499;-80
2023/06/13 01:19:23;;;;;;;7.60;6.60;;;16.70;65.30;;;;;;5030521;28;20091;-80
2023/06/13 01:21:53;;;;;;;8.55;7.00;;;16.70;65.30;;;;;;5005169;28;20041;-80
2023/06/13 01:24:40;;;;;;;8.80;6.25;;;16.60;65.30;;;;;;5016080;28;20099;-80
2023/06/13 01:27:15;;;;;;;8.48;7.03;;;16.60;65.40;;;;;;4999766;28;20492;-80
2023/06/13 01:29:52;;;;;;;10.18;6.75;;;16.60;65.40;;;;;;4996262;28;20046;-80
2023/06/13 01:32:34;;;;;;;8.15;6.88;;;16.60;65.50;;;;;;5006494;28;20053;-81
2023/06/13 01:35:03;;;;;;;7.88;7.07;;;16.60;65.50;;;;;;5001424;28;20515;-80
2023/06/13 01:37:43;;;;;;;7.78;7.00;;;16.60;65.70;;;;;;5004336;28;20041;-80
2023/06/13 01:40:15;;;;;;;8.65;7.13;;;16.60;65.80;;;;;;5022774;28;20081;-80
2023/06/13 01:42:46;;;;;;;9.30;7.35;;;16.50;66.00;;;;;;5015473;28;20106;-80
2023/06/13 01:45:15;;;;;;;9.20;6.68;;;16.40;66.10;;;;;;5015508;28;20095;-80
2023/06/13 01:48:08;;;;;;;7.63;6.82;;;16.30;66.30;;;;;;5028131;28;20098;-80
2023/06/13 01:51:05;;;;;;;7.53;6.63;;;16.30;66.50;;;;;;5026080;28;20146;-79
2023/06/13 01:53:43;;;;;;;7.93;7.22;;;16.30;66.50;;;;;;5020185;28;20042;-80
2023/06/13 01:56:24;;;;;;;10.60;7.43;;;16.30;66.70;;;;;;5026207;28;20099;-80
2023/06/13 01:59:10;;;;;;;9.75;7.00;;;16.20;66.70;;;;;;5012545;28;20046;-80
2023/06/13 02:01:45;;;;;;;8.13;7.22;;;16.30;66.90;;;;;;5038953;28;20048;-81
2023/06/13 02:04:11;;;;;;;8.73;7.30;;;16.30;67.00;;;;;;5034046;28;20073;-80
2023/06/13 02:06:51;;;;;;;10.32;7.38;;;16.20;67.00;;;;;;5032114;28;20042;-80
2023/06/13 02:09:22;;;;;;;10.80;7.53;;;16.20;67.20;;;;;;5015339;28;20033;-80
2023/06/13 02:11:59;;;;;;;8.88;7.55;;;16.20;67.20;;;;;;5008902;28;20038;-80
2023/06/13 02:14:25;;;;;;;8.75;7.47;;;16.20;67.30;;;;;;5013002;28;20045;-80
2023/06/13 02:16:53;;;;;;;9.07;7.53;;;16.10;67.40;;;;;;4999129;28;20167;-80
2023/06/13 02:19:24;;;;;;;8.32;7.25;;;16.10;68.50;;;;;;5047065;28;20120;-80
2023/06/13 02:22:00;;;;;;;10.05;7.78;;;16.10;67.80;;;;;;5025824;28;20046;-80
2023/06/13 02:24:29;;;;;;;11.55;7.63;;;16.00;68.00;;;;;;5029536;28;20045;-81
2023/06/13 02:26:55;;;;;;;8.45;7.22;;;16.00;68.20;;;;;;5036166;28;20048;-79
2023/06/13 02:29:29;;;;;;;8.90;7.60;;;16.00;68.20;;;;;;5032217;28;20061;-80
2023/06/13 02:31:56;;;;;;;8.43;7.55;;;15.90;68.40;;;;;;5013726;28;20039;-79
2023/06/13 02:34:23;;;;;;;10.10;7.45;;;15.90;68.50;;;;;;5050842;28;20042;-80
2023/06/13 02:36:51;;;;;;;8.85;7.95;;;15.90;68.70;;;;;;5017954;28;20045;-80
2023/06/13 02:39:17;;;;;;;9.02;7.20;;;15.90;68.80;;;;;;5017760;28;20033;-80
2023/06/13 02:41:45;;;;;;;9.05;7.70;;;15.90;68.90;;;;;;5041948;28;20171;-80
2023/06/13 02:44:14;;;;;;;8.45;7.60;;;15.80;69.00;;;;;;5043771;28;20057;-80
2023/06/13 02:46:40;;;;;;;9.15;7.50;;;15.80;69.20;;;;;;5020866;28;20060;-80
2023/06/13 02:49:14;;;;;;;31.65;8.88;;;15.80;69.30;;;;;;5020771;28;20045;-80
2023/06/13 02:51:43;;;;;;;9.75;7.93;;;15.80;69.50;;;;;;5010195;28;20048;-79
2023/06/13 02:54:11;;;;;;;8.63;7.75;;;15.70;69.70;;;;;;5048196;28;20096;-80
2023/06/13 02:56:40;;;;;;;8.80;7.90;;;15.70;69.80;;;;;;5011891;28;20172;-80
2023/06/13 02:59:14;;;;;;;8.48;7.57;;;15.70;70.00;;;;;;5019383;28;20037;-80
2023/06/13 03:01:46;;;;;;;8.80;7.90;;;15.60;70.30;;;;;;5008284;28;20034;-79
2023/06/13 03:04:18;;;;;;;8.77;7.88;;;15.60;71.40;;;;;;5046743;28;20123;-79
2023/06/13 03:06:50;;;;;;;8.93;8.02;;;15.60;70.90;;;;;;5034998;28;20095;-80
2023/06/13 03:09:19;;;;;;;8.98;7.97;;;15.60;71.20;;;;;;5041231;28;20040;-80
2023/06/13 03:11:48;;;;;;;9.13;7.63;;;15.50;71.30;;;;;;5035944;28;20045;-80
2023/06/13 03:14:18;;;;;;;8.50;7.70;;;15.60;71.70;;;;;;5019650;28;20038;-79
2023/06/13 03:16:48;;;;;;;11.10;7.82;;;15.50;71.90;;;;;;5018846;28;20506;-79
2023/06/13 03:19:18;;;;;;;9.77;8.18;;;15.40;72.00;;;;;;5019613;28;20096;-79
2023/06/13 03:21:44;;;;;;;8.93;7.57;;;15.40;72.40;;;;;;5011477;28;20389;-80
2023/06/13 03:24:13;;;;;;;8.48;7.55;;;15.40;72.50;;;;;;5019311;28;20052;-79
2023/06/13 03:26:50;;;;;;;8.50;7.65;;;15.40;72.80;;;;;;5019375;28;20068;-80
2023/06/13 03:29:22;;;;;;;10.80;7.10;;;15.50;73.20;;;;;;5019468;28;20065;-80
2023/06/13 03:31:52;;;;;;;8.63;7.82;;;15.50;73.40;;;;;;5018748;28;20034;-80
2023/06/13 03:34:24;;;;;;;8.30;7.50;;;15.40;73.80;;;;;;5036446;28;20488;-80
2023/06/13 03:36:50;;;;;;;11.38;7.82;;;15.40;74.00;;;;;;5013653;28;20092;-80
2023/06/13 03:39:17;;;;;;;8.50;7.63;;;15.50;74.20;;;;;;5042851;28;20056;-80
2023/06/13 03:41:44;;;;;;;9.40;7.55;;;15.40;74.40;;;;;;5015201;28;20025;-80
2023/06/13 03:44:11;;;;;;;10.13;7.80;;;15.50;74.80;;;;;;5050025;28;20407;-80
2023/06/13 03:46:37;;;;;;;8.52;7.72;;;15.40;75.40;;;;;;5014292;28;20042;-80
2023/06/13 03:49:04;;;;;;;8.90;8.00;;;15.40;75.60;;;;;;5032376;28;20037;-80
2023/06/13 03:51:31;;;;;;;8.55;7.68;;;15.40;76.40;;;;;;5013259;28;20080;-79
2023/06/13 03:53:58;;;;;;;10.15;7.63;;;15.40;76.90;;;;;;5004153;28;20048;-79
2023/06/13 03:56:26;;;;;;;7.80;7.05;;;15.40;77.80;;;;;;5000532;28;20446;-80
2023/06/13 03:58:53;;;;;;;9.38;7.78;;;15.40;78.70;;;;;;5022359;28;20408;-80
2023/06/13 04:01:22;;;;;;;9.07;7.85;;;15.50;80.20;;;;;;5015686;28;20510;-80
2023/06/13 04:03:51;;;;;;;8.32;7.55;;;15.40;80.30;;;;;;5017087;28;20034;-79
2023/06/13 04:06:18;;;;;;;8.38;7.38;;;15.40;81.70;;;;;;5051341;28;20455;-80
2023/06/13 04:08:45;;;;;;;9.93;7.15;;;15.40;83.20;;;;;;5020158;28;20041;-80
2023/06/13 04:11:15;;;;;;;9.68;7.57;;;15.40;85.30;;;;;;5017012;28;20377;-79
2023/06/13 04:13:42;;;;;;;9.18;7.57;;;15.40;86.30;;;;;;5014681;28;20085;-80
2023/06/13 04:16:08;;;;;;;8.10;7.28;;;15.40;88.30;;;;;;5033299;28;20034;-80
2023/06/13 04:18:39;;;;;;;8.80;7.70;;;15.40;94.00;;;;;;5002867;28;20049;-79
2023/06/13 04:21:09;;;;;;;11.88;7.47;;;15.40;97.00;;;;;;5057002;28;20033;-79
2023/06/13 04:23:41;;;;;;;9.10;7.93;;;15.40;98.60;;;;;;5017191;28;20037;-79
2023/06/13 04:26:13;;;;;;;9.65;7.60;;;15.60;99.70;;;;;;5019664;28;20072;-80
2023/06/13 04:28:40;;;;;;;10.15;7.55;;;16.20;98.40;;;;;;5014831;28;20030;-80
2023/06/13 04:31:07;;;;;;;8.25;7.35;;;16.70;90.50;;;;;;5016707;28;20060;-80
2023/06/13 04:33:33;;;;;;;8.90;7.75;;;17.30;81.90;;;;;;5017159;28;20038;-80
2023/06/13 04:36:05;;;;;;;9.32;7.07;;;17.60;75.80;;;;;;5016725;28;20033;-80
2023/06/13 04:38:35;;;;;;;8.65;7.35;;;18.10;72.80;;;;;;5016242;28;20406;-80
2023/06/13 04:41:09;;;;;;;7.78;6.85;;;18.50;70.10;;;;;;5015844;28;20037;-80
2023/06/13 04:43:38;;;;;;;8.38;6.82;;;18.80;67.80;;;;;;5041867;28;20087;-80
2023/06/13 04:46:05;;;;;;;8.98;6.25;;;19.00;66.60;;;;;;5016638;28;20041;-80
2023/06/13 04:48:35;;;;;;;7.15;6.55;;;19.20;65.90;;;;;;5032819;28;20045;-79
2023/06/13 04:51:09;;;;;;;11.60;6.40;;;19.30;65.80;;;;;;5014159;28;20087;-79
2023/06/13 04:53:37;;;;;;;7.57;6.50;;;19.60;64.50;;;;;;5012690;28;20045;-80
2023/06/13 04:56:06;;;;;;;8.73;6.63;;;19.70;63.40;;;;;;5031641;28;20049;-79
2023/06/13 04:58:32;;;;;;;8.15;6.50;;;19.90;61.90;;;;;;5015273;28;20044;-79
2023/06/13 05:00:59;;;;;;;7.25;6.30;;;19.90;61.90;;;;;;5015341;28;20041;-79
2023/06/13 05:03:25;;;;;;;8.45;7.05;;;20.10;62.10;;;;;;5020296;28;20041;-79
2023/06/13 05:05:54;;;;;;;7.20;6.47;;;20.30;63.00;;;;;;5029600;28;20523;-79
2023/06/13 05:08:22;;;;;;;9.52;6.43;;;20.60;60.00;;;;;;5048502;28;20038;-80
2023/06/13 05:10:54;;;;;;;7.50;6.50;;;20.70;59.70;;;;;;5047308;28;20069;-79
2023/06/13 05:13:23;;;;;;;7.40;6.15;;;20.70;59.40;;;;;;5015977;28;20418;-79
2023/06/13 05:15:51;;;;;;;7.93;6.72;;;20.80;59.00;;;;;;5015284;28;20677;-79
2023/06/13 05:18:22;;;;;;;6.43;5.75;;;20.70;58.90;;;;;;5015998;28;20043;-79
2023/06/13 05:20:51;;;;;;;8.75;6.55;;;20.70;58.90;;;;;;5010731;28;20061;-79
2023/06/13 05:23:21;;;;;;;7.55;6.20;;;20.70;59.40;;;;;;5029328;28;20038;-79
2023/06/13 05:25:48;;;;;;;7.60;6.32;;;20.80;59.10;;;;;;5019569;28;20592;-79
2023/06/13 05:28:17;;;;;;;8.55;6.03;;;20.90;59.10;;;;;;5014576;28;20049;-79
2023/06/13 05:30:44;;;;;;;6.90;5.82;;;21.10;58.50;;;;;;5015710;28;20033;-78
2023/06/13 05:33:15;;;;;;;8.65;6.30;;;21.20;58.50;;;;;;5044179;28;20448;-79
2023/06/13 05:35:47;;;;;;;8.63;6.32;;;21.40;58.10;;;;;;5041895;28;20037;-79
2023/06/13 05:38:14;;;;;;;7.35;6.13;;;21.70;56.70;;;;;;5015876;28;20061;-79
2023/06/13 05:40:40;;;;;;;7.13;6.13;;;21.70;56.80;;;;;;5011933;28;20052;-75
2023/06/13 05:43:06;;;;;;;6.25;5.65;;;21.70;57.20;;;;;;5037145;28;20043;-79
2023/06/13 05:45:31;;;;;;;8.50;5.68;;;21.90;56.80;;;;;;5047566;28;20559;-76
2023/06/13 05:47:57;;;;;;;7.57;5.80;;;22.10;56.00;;;;;;5030969;28;20403;-75
2023/06/13 05:50:23;;;;;;;6.68;5.75;;;22.10;56.90;;;;;;5030959;28;20049;-77
2023/06/13 05:52:49;;;;;;;7.78;5.53;;;22.20;56.10;;;;;;5022416;28;20033;-78
2023/06/13 05:55:14;;;;;;;6.43;5.13;;;22.20;55.70;;;;;;5013513;28;20041;-77
2023/06/13 05:57:42;;;;;;;7.22;5.45;;;22.20;54.70;;;;;;5005796;28;20511;-78
2023/06/13 06:00:12;;;;;;;6.20;5.40;;;22.10;55.20;;;;;;5005356;28;20481;-75
2023/06/13 06:02:39;;;;;;;8.98;5.80;;;21.70;56.40;;;;;;5013974;28;20030;-76
2023/06/13 06:05:04;;;;;;;6.90;5.55;;;21.20;58.40;;;;;;5041479;28;20052;-77
2023/06/13 06:07:31;;;;;;;8.15;5.65;;;20.80;59.40;;;;;;5010120;28;20030;-78
2023/06/13 06:09:57;;;;;;;7.38;6.00;;;20.40;60.00;;;;;;5009226;28;20052;-77
2023/06/13 06:12:22;;;;;;;5.82;4.90;;;20.00;60.10;;;;;;5013977;28;20041;-76
2023/06/13 06:14:48;;;;;;;7.75;5.95;;;19.80;61.10;;;;;;5028234;28;20073;-76
2023/06/13 06:17:14;;;;;;;6.85;5.43;;;19.70;60.90;;;;;;5029155;28;20491;-76
2023/06/13 06:19:39;;;;;;;5.88;5.28;;;19.40;62.00;;;;;;5006016;28;20115;-77
2023/06/13 06:22:05;;;;;;;6.10;5.45;;;19.40;62.10;;;;;;5013053;28;20048;-77
2023/06/13 06:24:31;;;;;;;8.90;6.10;;;19.40;62.80;;;;;;5004227;28;20386;-78
2023/06/13 06:27:00;;;;;;;7.97;5.97;;;19.40;63.00;;;;;;5001328;28;20046;-77
2023/06/13 06:29:25;;;;;;;6.25;5.53;;;19.50;63.00;;;;;;5045791;28;20037;-78
2023/06/13 06:31:51;;;;;;;8.90;5.60;;;19.40;63.00;;;;;;5063339;28;20034;-78
2023/06/13 06:34:24;;;;;;;6.57;5.20;;;19.50;63.10;;;;;;5061039;28;20037;-80
2023/06/13 06:36:50;;;;;;;7.50;5.47;;;19.50;63.60;;;;;;5021852;28;20044;-78
2023/06/13 06:39:16;;;;;;;10.30;5.40;;;19.50;63.90;;;;;;5013323;28;20033;-78
2023/06/13 06:41:45;;;;;;;6.78;5.40;;;19.60;63.00;;;;;;5044407;28;20127;-79
2023/06/13 06:44:10;;;;;;;7.57;5.68;;;19.60;62.40;;;;;;5038812;28;20065;-79
2023/06/13 06:46:39;;;;;;;7.20;5.55;;;19.70;62.40;;;;;;5011171;28;20084;-78
2023/06/13 06:49:07;;;;;;;11.35;5.90;;;19.80;62.90;;;;;;5033637;28;20037;-82
2023/06/13 06:51:39;;;;;;;6.93;5.25;;;19.80;62.60;;;;;;5029639;28;20534;-79
2023/06/13 06:54:05;;;;;;;7.75;5.72;;;19.90;62.10;;;;;;5003788;28;20073;-79
2023/06/13 06:56:31;;;;;;;6.50;4.78;;;19.90;61.60;;;;;;5044904;28;20042;-79
2023/06/13 06:58:56;;;;;;;5.65;4.90;;;19.80;62.40;;;;;;5046728;28;20045;-79
2023/06/13 07:01:56;;;;;;;;;;;;;;;;;;;;;
2023/06/13 07:04:54;;;;;;;6.38;4.95;;;20.00;62.50;;;;;;5023689;28;20050;-81
2023/06/13 07:07:44;;;;;;;6.85;5.20;;;20.10;61.80;;;;;;5004636;28;20096;-81
2023/06/13 07:10:33;;;;;;;6.85;4.90;;;20.20;61.20;;;;;;5029225;28;20052;-81
2023/06/13 07:13:19;;;;;;;5.88;5.15;;;20.30;61.10;;;;;;5027352;28;20049;-81
2023/06/13 07:16:03;;;;;;;5.55;5.00;;;20.40;61.40;;;;;;4999308;28;20294;-81
2023/06/13 07:18:37;;;;;;;6.47;5.10;;;20.40;61.10;;;;;;5001082;28;20045;-81
2023/06/13 07:22:22;;;;;;;8.25;4.95;;;20.40;61.20;;;;;;5017260;28;20036;-81
2023/06/13 07:25:08;;;;;;;6.90;4.95;;;20.50;61.10;;;;;;5034252;28;20526;-81
2023/06/13 07:27:36;;;;;;;6.97;5.07;;;20.70;61.40;;;;;;5010845;28;20114;-81
2023/06/13 07:30:17;;;;;;;7.10;4.93;;;20.80;60.50;;;;;;5040424;28;20041;-81
2023/06/13 07:33:05;;;;;;;6.78;5.13;;;20.90;61.10;;;;;;5021049;28;20046;-80
2023/06/13 07:36:10;;;;;;;6.90;4.82;;;21.00;60.80;;;;;;5026214;28;20432;-81
2023/06/13 07:39:49;;;;;;;5.70;4.82;;;21.10;62.10;;;;;;5037168;28;20042;-81
2023/06/13 07:42:44;;;;;;;9.25;5.28;;;21.40;60.50;;;;;;5023088;28;20091;-79
2023/06/13 07:45:27;;;;;;;7.00;4.78;;;21.70;60.70;;;;;;5029314;28;20385;-79
2023/06/13 07:48:21;;;;;;;6.27;5.43;;;22.20;59.70;;;;;;5032992;28;20052;-78
2023/06/13 07:51:13;;;;;;;7.28;5.38;;;22.90;58.30;;;;;;5036629;28;20041;-79
2023/06/13 07:54:07;;;;;;;5.70;5.00;;;23.40;56.20;;;;;;4973498;28;20057;-79
2023/06/13 07:56:49;;;;;;;7.25;5.28;;;24.10;56.80;;;;;;5011978;28;20146;-80
2023/06/13 08:00:00;;;;;;;5.50;5.00;;;24.50;55.60;;;;;;5011413;28;20049;-78
2023/06/13 08:02:34;;;;;;;9.32;5.28;;;24.90;52.90;;;;;;5032196;28;20041;-79
2023/06/13 08:08:42;;;;;;;6.18;4.90;;;25.10;52.50;;;;;;4999006;28;20427;-78
2023/06/13 08:11:16;;;;;;;6.05;4.93;;;25.40;51.60;;;;;;5035640;28;20124;-78
2023/06/13 08:14:01;;;;;;;9.93;5.70;;;25.60;51.00;;;;;;5037779;28;20056;-78
2023/06/13 08:16:36;;;;;;;6.63;5.10;;;25.70;51.10;;;;;;5021636;28;20037;-79
2023/06/13 08:19:26;;;;;;;7.07;5.45;;;25.90;50.30;;;;;;5028880;28;20264;-78
2023/06/13 08:22:01;;;;;;;7.10;5.00;;;26.00;49.70;;;;;;5001386;28;20104;-78
2023/06/13 08:24:44;;;;;;;11.45;5.65;;;26.10;50.10;;;;;;5001797;28;20056;-78
2023/06/13 08:27:18;;;;;;;6.85;5.18;;;26.20;49.80;;;;;;5017797;28;20089;-78
2023/06/13 08:30:09;;;;;;;11.77;5.30;;;26.30;50.10;;;;;;5021329;28;20026;-78
2023/06/13 08:32:48;;;;;;;6.65;4.72;;;26.60;50.40;;;;;;5066618;28;20045;-78
2023/06/13 08:35:35;;;;;;;8.82;5.65;;;26.70;50.10;;;;;;5032665;28;20389;-78
2023/06/13 08:38:45;;;;;;;7.32;5.30;;;26.90;49.30;;;;;;5009712;28;20101;-79
2023/06/13 08:41:48;;;;;;;;;;;;;;;;;;;;;
2023/06/13 08:44:46;;;;;;;7.07;5.60;;;27.50;49.50;;;;;;5024030;28;20108;-78
2023/06/13 08:47:28;;;;;;;7.15;4.97;;;27.60;47.60;;;;;;5034426;28;20045;-78
2023/06/13 08:50:01;;;;;;;7.67;4.80;;;27.50;46.70;;;;;;5025874;28;20508;-78
2023/06/13 08:52:57;;;;;;;7.38;5.10;;;27.50;46.10;;;;;;5003406;28;20666;-79
2023/06/13 08:55:46;;;;;;;6.10;4.63;;;27.50;46.20;;;;;;5041666;28;20037;-78
2023/06/13 08:58:30;;;;;;;7.57;5.15;;;27.50;45.20;;;;;;5018421;28;20046;-78
2023/06/13 09:01:18;;;;;;;5.75;4.70;;;27.50;46.80;;;;;;5017819;28;20029;-78
2023/06/13 09:03:54;;;;;;;6.78;4.57;;;27.60;46.10;;;;;;5011324;28;20026;-78
2023/06/13 09:06:47;;;;;;;5.95;4.70;;;27.70;45.20;;;;;;5042946;28;20057;-78
2023/06/13 09:09:43;;;;;;;5.32;4.70;;;27.80;45.60;;;;;;5015642;28;20534;-78
2023/06/13 09:12:26;;;;;;;7.70;4.97;;;28.00;44.50;;;;;;5011095;28;20416;-79
2023/06/13 09:15:46;;;;;;;6.85;4.88;;;28.10;44.40;;;;;;5015498;28;20420;-79
2023/06/13 09:18:22;;;;;;;5.70;4.63;;;28.20;45.30;;;;;;4979549;28;20048;-78
2023/06/13 09:21:01;;;;;;;7.88;4.97;;;28.20;44.90;;;;;;5016382;28;20385;-78
2023/06/13 09:24:09;;;;;;;5.70;4.85;;;28.40;44.70;;;;;;4966475;28;20046;-78
2023/06/13 09:27:03;;;;;;;5.70;4.68;;;28.40;44.40;;;;;;5010461;28;20056;-78
2023/06/13 09:30:33;;;;;;;;;;;;;;;;;;;;;
2023/06/13 09:33:26;;;;;;;5.70;4.78;;;28.60;43.00;;;;;;5046922;28;20499;-78
2023/06/13 09:36:02;;;;;;;5.45;4.43;;;28.80;42.20;;;;;;5044110;28;20056;-78
2023/06/13 09:39:17;;;;;;;5.75;4.40;;;28.80;43.00;;;;;;5042071;28;20045;-78
2023/06/13 09:42:32;;;;;;;7.18;4.80;;;28.80;42.60;;;;;;5001249;28;20056;-78
2023/06/13 09:45:45;;;;;;;;;;;;;;;;;;;;;
2023/06/13 09:48:32;;;;;;;5.32;4.45;;;28.60;43.00;;;;;;5010842;28;20562;-78
2023/06/13 09:51:17;;;;;;;7.93;4.65;;;28.80;42.70;;;;;;4973690;28;20448;-78
2023/06/13 09:54:03;;;;;;;8.95;4.95;;;29.00;42.10;;;;;;5011046;28;20038;-78
2023/06/13 09:56:34;;;;;;;5.80;4.50;;;29.30;40.40;;;;;;4993688;28;20053;-78
2023/06/13 09:59:18;;;;;;;5.60;4.78;;;28.90;41.70;;;;;;4994720;28;20046;-78
2023/06/13 10:01:50;;;;;;;4.88;4.10;;;28.80;42.30;;;;;;4994574;28;20512;-78
2023/06/13 10:04:25;;;;;;;5.95;4.30;;;29.20;41.70;;;;;;4994172;28;20108;-78
2023/06/13 10:07:15;;;;;;;5.63;4.03;;;29.40;40.80;;;;;;4994204;28;20448;-78
2023/06/13 10:10:07;;;;;;;6.15;4.70;;;29.20;40.90;;;;;;5025086;28;20126;-78
2023/06/13 10:13:13;;;;;;;7.00;4.63;;;29.30;41.30;;;;;;5025737;28;20416;-79
2023/06/13 10:16:26;;;;;;;;;;;;;;;;;;;;;
2023/06/13 10:19:29;;;;;;;4.75;4.10;;;29.50;40.30;;;;;;5026355;28;20045;-79
2023/06/13 10:25:52;;;;;;;5.65;4.57;;;29.80;41.40;;;;;;4900484;29;20606;-78
2023/06/13 10:29:20;;;;;;;4.75;4.25;;;30.00;40.20;;;;;;5229335;22;20107;-78
2023/06/13 10:32:35;;;;;;;7.25;4.22;;;30.00;39.60;;;;;;5045943;28;20052;-78
2023/06/13 10:35:44;;;;;;;5.18;4.22;;;30.10;39.10;;;;;;5011010;28;20042;-78
2023/06/13 10:42:32;;;;;;;6.35;4.10;;;30.30;38.40;;;;;;5005852;22;20373;-73
2023/06/13 10:45:07;;;;;;;6.82;4.07;;;30.30;38.40;;;;;;5013954;28;20168;-74
2023/06/13 10:47:32;;;;;;;5.28;4.35;;;30.30;38.20;;;;;;5023374;28;20090;-74
2023/06/13 10:49:59;;;;;;;6.50;4.40;;;30.20;37.50;;;;;;5013682;28;20504;-74
2023/06/13 10:52:25;;;;;;;11.07;4.20;;;30.40;37.00;;;;;;5030380;28;20403;-74
2023/06/13 10:54:56;;;;;;;5.70;4.05;;;30.40;38.20;;;;;;5005372;28;20041;-74
2023/06/13 10:57:22;;;;;;;4.60;4.20;;;30.70;37.00;;;;;;4990203;28;20499;-73
2023/06/13 10:59:49;;;;;;;5.72;4.45;;;30.80;36.40;;;;;;4995901;28;20124;-74
2023/06/13 11:02:19;;;;;;;5.05;4.45;;;31.00;35.90;;;;;;4992498;28;20046;-74
2023/06/13 11:04:52;;;;;;;5.00;4.50;;;31.00;34.70;;;;;;4994606;28;20049;-73
2023/06/13 11:07:21;;;;;;;6.88;4.38;;;31.00;34.50;;;;;;5005085;28;20033;-74
2023/06/13 11:10:13;;;;;;;5.13;4.57;;;30.60;36.40;;;;;;4998192;28;20038;-74
2023/06/13 11:12:40;;;;;;;7.10;4.60;;;30.80;34.90;;;;;;4977737;28;20256;-73
2023/06/13 11:15:21;;;;;;;7.55;4.10;;;30.90;35.50;;;;;;4997597;28;20524;-74
2023/06/13 11:18:09;;;;;;;5.65;4.15;;;30.90;36.10;;;;;;4976105;28;20046;-74
2023/06/13 11:20:53;;;;;;;4.90;4.50;;;30.90;35.00;;;;;;5002538;28;20429;-74
2023/06/13 11:23:24;;;;;;;5.57;4.43;;;30.70;37.10;;;;;;4993397;28;20048;-73
2023/06/13 11:25:51;;;;;;;4.60;4.20;;;31.20;34.10;;;;;;4997371;28;20034;-76
2023/06/13 11:28:18;;;;;;;5.35;4.30;;;30.90;34.70;;;;;;4997588;28;20125;-74
2023/06/13 11:30:47;;;;;;;5.30;4.28;;;30.70;34.20;;;;;;4979778;28;20037;-76
2023/06/13 11:33:13;;;;;;;6.28;4.32;;;30.50;35.10;;;;;;4995449;28;20052;-76
2023/06/13 11:35:49;;;;;;;5.13;4.15;;;30.30;35.50;;;;;;4995590;28;20038;-75
2023/06/13 11:38:20;;;;;;;5.13;4.38;;;30.40;35.30;;;;;;4980488;28;20056;-74
2023/06/13 11:40:51;;;;;;;6.87;4.70;;;30.40;34.80;;;;;;4997327;28;20038;-75
2023/06/13 11:43:17;;;;;;;6.38;4.25;;;30.40;34.10;;;;;;4995917;28;20948;-77
2023/06/13 11:45:45;;;;;;;7.05;3.85;;;30.50;34.00;;;;;;4998310;28;20042;-76
2023/06/13 11:48:16;;;;;;;4.95;4.40;;;30.70;35.90;;;;;;4996402;28;20462;-76
2023/06/13 11:50:42;;;;;;;6.35;4.50;;;31.10;34.30;;;;;;4997218;28;20508;-76
2023/06/13 11:53:08;;;;;;;6.10;4.20;;;31.20;34.00;;;;;;5007254;28;20038;-76
2023/06/13 11:55:35;;;;;;;5.43;4.53;;;31.40;33.30;;;;;;4992632;28;20037;-76
2023/06/13 11:58:01;;;;;;;5.20;3.92;;;31.40;33.70;;;;;;4996832;28;20061;-75
2023/06/13 12:00:28;;;;;;;6.38;4.07;;;31.60;35.00;;;;;;4977365;28;20481;-76
2023/06/13 12:02:58;;;;;;;4.88;4.20;;;31.60;33.50;;;;;;4996665;28;20038;-75
2023/06/13 12:05:24;;;;;;;4.35;3.90;;;31.50;34.00;;;;;;4996946;28;20084;-76
2023/06/13 12:07:50;;;;;;;7.03;4.20;;;31.40;33.60;;;;;;4995430;28;20037;-77
2023/06/13 12:10:17;;;;;;;5.78;4.25;;;31.30;34.40;;;;;;4996240;28;20555;-76
2023/06/13 12:12:56;;;;;;;4.53;4.13;;;31.30;34.10;;;;;;4994406;28;20041;-76
2023/06/13 12:15:26;;;;;;;7.85;4.50;;;31.40;33.80;;;;;;4994797;28;20515;-75
2023/06/13 12:17:56;;;;;;;4.55;4.15;;;31.50;33.80;;;;;;4996803;28;20041;-77
2023/06/13 12:20:24;;;;;;;5.63;4.60;;;31.40;33.30;;;;;;4999105;28;20050;-77
2023/06/13 12:22:56;;;;;;;4.95;4.20;;;31.20;32.80;;;;;;4994802;28;20037;-77
2023/06/13 12:25:23;;;;;;;4.93;4.53;;;31.00;32.70;;;;;;4996662;28;20042;-77
2023/06/13 12:27:50;;;;;;;6.07;4.60;;;30.80;33.80;;;;;;4990413;28;20038;-77
2023/06/13 12:30:17;;;;;;;6.75;4.50;;;30.80;34.80;;;;;;5006845;28;20049;-77
2023/06/13 12:32:56;;;;;;;6.03;4.25;;;31.10;33.90;;;;;;4989905;28;20092;-76
2023/06/13 12:35:24;;;;;;;5.22;4.20;;;31.00;34.20;;;;;;5000185;28;20042;-75
2023/06/13 12:38:16;;;;;;;8.18;4.28;;;30.90;34.50;;;;;;4994758;28;20037;-75
2023/06/13 12:40:41;;;;;;;7.05;4.78;;;30.70;35.00;;;;;;4980983;28;20393;-75
2023/06/13 12:43:07;;;;;;;8.52;4.05;;;30.80;35.00;;;;;;4992500;28;20041;-74
2023/06/13 12:45:33;;;;;;;6.88;4.40;;;30.80;35.70;;;;;;4985679;28;20042;-76
2023/06/13 12:47:58;;;;;;;6.03;4.15;;;31.20;34.10;;;;;;4995646;28;20049;-76
2023/06/13 12:50:26;;;;;;;5.68;4.32;;;31.20;34.00;;;;;;5001795;28;20042;-76
2023/06/13 12:53:08;;;;;;;5.35;4.22;;;30.90;34.40;;;;;;4996012;28;20044;-76
2023/06/13 12:55:35;;;;;;;4.70;4.22;;;30.80;34.10;;;;;;4988120;28;20073;-75
2023/06/13 12:58:02;;;;;;;5.78;4.18;;;30.90;34.20;;;;;;4995771;28;20515;-75
2023/06/13 13:00:28;;;;;;;5.43;4.03;;;31.10;36.70;;;;;;4994696;28;20106;-75
2023/06/13 13:02:55;;;;;;;6.80;4.32;;;31.70;34.60;;;;;;4989976;28;20038;-75
2023/06/13 13:05:20;;;;;;;5.57;4.30;;;32.00;34.50;;;;;;4995631;28;20123;-75
2023/06/13 13:07:47;;;;;;;5.43;4.07;;;31.90;34.60;;;;;;4977032;28;20109;-75
2023/06/13 13:10:13;;;;;;;6.82;4.68;;;32.00;33.00;;;;;;4992932;28;20038;-75
2023/06/13 13:12:41;;;;;;;5.75;3.95;;;31.90;34.10;;;;;;4996021;28;20412;-75
2023/06/13 13:15:07;;;;;;;8.07;4.47;;;31.90;34.20;;;;;;4993919;28;20038;-75
2023/06/13 13:17:33;;;;;;;4.97;3.88;;;31.80;34.40;;;;;;4995068;28;20116;-75
2023/06/13 13:19:59;;;;;;;6.10;4.20;;;31.80;34.30;;;;;;4995479;28;20052;-76
2023/06/13 13:22:24;;;;;;;12.77;4.53;;;32.20;35.40;;;;;;5011159;28;20042;-75
2023/06/13 13:24:50;;;;;;;4.72;4.18;;;32.90;34.10;;;;;;4995410;28;20041;-75
2023/06/13 13:27:16;;;;;;;5.82;4.60;;;33.00;32.00;;;;;;4993676;28;20037;-77
2023/06/13 13:29:41;;;;;;;5.57;4.18;;;32.50;33.30;;;;;;4996532;28;20404;-77
2023/06/13 13:32:07;;;;;;;6.47;4.50;;;32.40;32.90;;;;;;4978092;28;20034;-75
2023/06/13 13:34:33;;;;;;;4.57;4.18;;;32.50;32.90;;;;;;4992431;28;20065;-75
2023/06/13 13:36:58;;;;;;;7.28;4.32;;;32.30;32.30;;;;;;4992953;28;20077;-75
2023/06/13 13:39:24;;;;;;;6.40;4.40;;;32.10;33.30;;;;;;4995013;28;20050;-76
2023/06/13 13:41:50;;;;;;;5.55;4.13;;;32.00;33.60;;;;;;4978116;28;20036;-76
2023/06/13 13:44:15;;;;;;;6.60;3.97;;;31.90;33.20;;;;;;4990168;28;20065;-76
2023/06/13 13:46:41;;;;;;;4.53;3.97;;;31.80;33.40;;;;;;4991891;28;20400;-76
2023/06/13 13:49:06;;;;;;;5.18;3.97;;;31.80;34.30;;;;;;4992659;28;20081;-76